PWSweather.com
Personal Weather Stations
Station Observations
IMAZOWIE6
WarszawaPL

WarszawaPL

Lat: 52.27957, Lon: 21.05489

Elevation: 100

Station Type: WS1080

http://stacjapogody.waw.pl/

High Low Average
Temperature 55.2°F12.9°F 52.7°F11.5°F 53.9°F12.2°F
Dew Point 34.7°F1.5°F 23.5°F-4.7°F 28.4°F-2.0°F
Winds Calm Calm Calm Calm Calm Calm
Wind Gusts 0.6 mph1.0 mph -- 0.1 mph0.2 mph
Humidity 47% 32% 38%
Pressure 29.61 in1002.70 in 29.50 in999.00 in -
Precipitation 0.66 in16.80 in - -
Hour Temp Dew Point Humidity Winds Wind Gusts Pressure Precip Precip Rate Daily Precip Total
12:03 AM 54.1°F12.3°C 27.6°F-2.4°C 36% Calm Calm -- 29.61 in1002.7 mb 0.00 in0.0 mm 0.00 in0.0 mm 0.00 in0.0 mm
12:19 AM 54.1°F12.3°C 27.6°F-2.4°C 36% Calm Calm -- 29.60 in1002.4 mb 0.00 in0.0 mm 0.00 in0.0 mm 0.00 in0.0 mm
12:35 AM 54.0°F12.2°C 27.4°F-2.6°C 36% Calm Calm -- 29.59 in1002.0 mb 0.00 in0.0 mm 0.00 in0.0 mm 0.00 in0.0 mm
12:46 AM 54.0°F12.2°C 27.4°F-2.6°C 36% Calm Calm -- 29.59 in1002.0 mb 0.00 in0.0 mm 0.00 in0.0 mm 0.00 in0.0 mm
01:02 AM 54.1°F12.3°C 27.6°F-2.4°C 36% Calm Calm 0.6 mph1.0 kmh 29.59 in1002.0 mb 0.00 in0.0 mm 0.00 in0.0 mm 0.00 in0.0 mm
01:18 AM 53.8°F12.1°C 27.3°F-2.6°C 36% Calm Calm -- 29.60 in1002.4 mb 0.00 in0.0 mm 0.00 in0.0 mm 0.00 in0.0 mm
01:34 AM 53.8°F12.1°C 27.3°F-2.6°C 36% Calm Calm -- 29.60 in1002.4 mb 0.00 in0.0 mm 0.00 in0.0 mm 0.00 in0.0 mm
01:50 AM 53.6°F12.0°C 27.1°F-2.7°C 36% Calm Calm -- 29.60 in1002.4 mb 0.00 in0.0 mm 0.00 in0.0 mm 0.00 in0.0 mm
02:01 AM 53.6°F12.0°C 27.1°F-2.7°C 36% Calm Calm -- 29.60 in1002.4 mb 0.00 in0.0 mm 0.00 in0.0 mm 0.00 in0.0 mm
02:16 AM 53.6°F12.0°C 27.1°F-2.7°C 36% Calm Calm -- 29.60 in1002.4 mb 0.00 in0.0 mm 0.00 in0.0 mm 0.00 in0.0 mm
02:31 AM 53.6°F12.0°C 27.1°F-2.7°C 36% Calm Calm -- 29.59 in1002.0 mb 0.00 in0.0 mm 0.00 in0.0 mm 0.00 in0.0 mm
02:46 AM 53.4°F11.9°C 26.9°F-2.8°C 36% Calm Calm -- 29.60 in1002.4 mb 0.00 in0.0 mm 0.00 in0.0 mm 0.00 in0.0 mm
03:01 AM 53.4°F11.9°C 26.9°F-2.8°C 36% Calm Calm -- 29.59 in1002.0 mb 0.00 in0.0 mm 0.00 in0.0 mm 0.00 in0.0 mm
03:16 AM 53.4°F11.9°C 26.9°F-2.8°C 36% Calm Calm -- 29.58 in1001.7 mb 0.00 in0.0 mm 0.00 in0.0 mm 0.00 in0.0 mm
03:31 AM 53.2°F11.8°C 26.8°F-2.9°C 36% Calm Calm -- 29.58 in1001.7 mb 0.00 in0.0 mm 0.00 in0.0 mm 0.00 in0.0 mm
03:46 AM 52.9°F11.6°C 26.5°F-3.1°C 36% Calm Calm -- 29.58 in1001.7 mb 0.00 in0.0 mm 0.00 in0.0 mm 0.00 in0.0 mm
04:16 AM 52.7°F11.5°C 25.6°F-3.6°C 35% Calm Calm -- 29.57 in1001.4 mb 0.00 in0.0 mm 0.00 in0.0 mm 0.00 in0.0 mm
04:31 AM 52.9°F11.6°C 25.8°F-3.4°C 35% Calm Calm -- 29.57 in1001.4 mb 0.00 in0.0 mm 0.00 in0.0 mm 0.00 in0.0 mm
04:46 AM 52.7°F11.5°C 25.6°F-3.6°C 35% Calm Calm 0.6 mph1.0 kmh 29.56 in1001.0 mb 0.00 in0.0 mm 0.00 in0.0 mm 0.00 in0.0 mm
05:01 AM 52.7°F11.5°C 25.6°F-3.6°C 35% Calm Calm 0.6 mph1.0 kmh 29.56 in1001.0 mb 0.00 in0.0 mm 0.00 in0.0 mm 0.00 in0.0 mm
05:16 AM 52.7°F11.5°C 25.6°F-3.6°C 35% Calm Calm -- 29.56 in1001.0 mb 0.00 in0.0 mm 0.00 in0.0 mm 0.00 in0.0 mm
05:31 AM 52.7°F11.5°C 24.9°F-3.9°C 34% Calm Calm -- 29.56 in1001.0 mb 0.00 in0.0 mm 0.00 in0.0 mm 0.00 in0.0 mm
05:46 AM 52.7°F11.5°C 24.9°F-3.9°C 34% Calm Calm -- 29.55 in1000.7 mb 0.00 in0.0 mm 0.00 in0.0 mm 0.00 in0.0 mm
06:01 AM 52.9°F11.6°C 25.1°F-3.8°C 34% Calm Calm -- 29.55 in1000.7 mb 0.00 in0.0 mm 0.00 in0.0 mm 0.00 in0.0 mm
06:16 AM 52.7°F11.5°C 24.2°F-4.3°C 33% Calm Calm -- 29.55 in1000.7 mb 0.00 in0.0 mm 0.00 in0.0 mm 0.00 in0.0 mm
06:31 AM 52.7°F11.5°C 24.2°F-4.3°C 33% Calm Calm -- 29.55 in1000.7 mb 0.00 in0.0 mm 0.00 in0.0 mm 0.00 in0.0 mm
06:46 AM 52.9°F11.6°C 24.4°F-4.2°C 33% Calm Calm -- 29.55 in1000.7 mb 0.01 in0.3 mm 0.05 in1.3 mm 0.01 in0.3 mm
07:01 AM 52.9°F11.6°C 24.4°F-4.2°C 33% Calm Calm -- 29.53 in1000.0 mb 0.01 in0.3 mm 0.00 in0.0 mm 0.01 in0.3 mm
07:16 AM 52.9°F11.6°C 24.4°F-4.2°C 33% Calm Calm -- 29.53 in1000.0 mb 0.00 in0.0 mm 0.00 in0.0 mm 0.01 in0.3 mm
07:31 AM 52.7°F11.5°C 23.5°F-4.7°C 32% Calm Calm -- 29.52 in999.7 mb 0.00 in0.0 mm 0.00 in0.0 mm 0.01 in0.3 mm
07:46 AM 52.9°F11.6°C 23.6°F-4.7°C 32% Calm Calm -- 29.53 in1000.0 mb 0.00 in0.0 mm 0.00 in0.0 mm 0.01 in0.3 mm
08:01 AM 52.9°F11.6°C 23.6°F-4.7°C 32% Calm Calm 0.6 mph1.0 kmh 29.53 in1000.0 mb 0.00 in0.0 mm 0.00 in0.0 mm 0.01 in0.3 mm
08:16 AM 52.7°F11.5°C 23.5°F-4.7°C 32% Calm Calm -- 29.53 in1000.0 mb 0.01 in0.3 mm 0.05 in1.3 mm 0.02 in0.5 mm
08:31 AM 52.7°F11.5°C 23.5°F-4.7°C 32% Calm Calm -- 29.53 in1000.0 mb 0.02 in0.5 mm 0.05 in1.3 mm 0.04 in1.0 mm
08:46 AM 53.1°F11.7°C 24.5°F-4.2°C 33% Calm Calm -- 29.52 in999.7 mb 0.05 in1.3 mm 0.10 in2.5 mm 0.06 in1.5 mm
09:01 AM 52.7°F11.5°C 24.2°F-4.3°C 33% Calm Calm -- 29.52 in999.7 mb 0.07 in1.8 mm 0.03 in0.8 mm 0.09 in2.3 mm
09:16 AM 52.9°F11.6°C 24.4°F-4.2°C 33% Calm Calm -- 29.52 in999.7 mb 0.02 in0.5 mm 0.00 in0.0 mm 0.09 in2.3 mm
09:31 AM 53.1°F11.7°C 24.5°F-4.2°C 33% Calm Calm -- 29.52 in999.7 mb 0.05 in1.3 mm 0.10 in2.5 mm 0.11 in2.8 mm
09:46 AM 53.4°F11.9°C 25.6°F-3.6°C 34% Calm Calm -- 29.52 in999.7 mb 0.07 in1.8 mm 0.10 in2.5 mm 0.14 in3.6 mm
10:01 AM 53.4°F11.9°C 25.6°F-3.6°C 34% Calm Calm 0.6 mph1.0 kmh 29.52 in999.7 mb 0.09 in2.3 mm 0.02 in0.5 mm 0.15 in3.8 mm
10:16 AM 53.6°F12.0°C 26.4°F-3.1°C 35% Calm Calm -- 29.52 in999.7 mb 0.01 in0.3 mm 0.00 in0.0 mm 0.15 in3.8 mm
10:31 AM 53.6°F12.0°C 26.4°F-3.1°C 35% Calm Calm -- 29.52 in999.7 mb 0.02 in0.5 mm 0.05 in1.3 mm 0.16 in4.1 mm
10:46 AM 54.0°F12.2°C 26.7°F-2.9°C 35% Calm Calm -- 29.52 in999.7 mb 0.04 in1.0 mm 0.05 in1.3 mm 0.17 in4.3 mm
11:01 AM 54.0°F12.2°C 27.4°F-2.6°C 36% Calm Calm -- 29.52 in999.7 mb 0.04 in1.0 mm 0.00 in0.0 mm 0.17 in4.3 mm
11:16 AM 54.0°F12.2°C 27.4°F-2.6°C 36% Calm Calm -- 29.51 in999.3 mb 0.00 in0.0 mm 0.00 in0.0 mm 0.17 in4.3 mm
11:31 AM 54.3°F12.4°C 27.7°F-2.4°C 36% Calm Calm -- 29.52 in999.7 mb 0.00 in0.0 mm 0.00 in0.0 mm 0.17 in4.3 mm
11:46 AM 54.1°F12.3°C 27.6°F-2.4°C 36% Calm Calm -- 29.52 in999.7 mb 0.00 in0.0 mm 0.00 in0.0 mm 0.17 in4.3 mm
12:01 PM 54.0°F12.2°C 27.4°F-2.6°C 36% Calm Calm -- 29.52 in999.7 mb 0.00 in0.0 mm 0.00 in0.0 mm 0.17 in4.3 mm
12:16 PM 54.1°F12.3°C 27.6°F-2.4°C 36% Calm Calm 0.6 mph1.0 kmh 29.52 in999.7 mb 0.01 in0.3 mm 0.05 in1.3 mm 0.18 in4.6 mm
12:31 PM 54.3°F12.4°C 27.7°F-2.4°C 36% Calm Calm 0.6 mph1.0 kmh 29.52 in999.7 mb 0.01 in0.3 mm 0.00 in0.0 mm 0.18 in4.6 mm
12:46 PM 54.5°F12.5°C 27.9°F-2.3°C 36% Calm Calm -- 29.51 in999.3 mb 0.01 in0.3 mm 0.00 in0.0 mm 0.18 in4.6 mm
01:01 PM 54.5°F12.5°C 28.6°F-1.9°C 37% Calm Calm 0.6 mph1.0 kmh 29.51 in999.3 mb 0.01 in0.3 mm 0.00 in0.0 mm 0.18 in4.6 mm
01:16 PM 54.7°F12.6°C 28.7°F-1.8°C 37% Calm Calm -- 29.51 in999.3 mb 0.00 in0.0 mm 0.00 in0.0 mm 0.18 in4.6 mm
01:31 PM 54.9°F12.7°C 28.9°F-1.7°C 37% Calm Calm 0.6 mph1.0 kmh 29.51 in999.3 mb 0.00 in0.0 mm 0.00 in0.0 mm 0.18 in4.6 mm
01:46 PM 54.9°F12.7°C 29.5°F-1.4°C 38% Calm Calm 0.6 mph1.0 kmh 29.51 in999.3 mb 0.00 in0.0 mm 0.00 in0.0 mm 0.18 in4.6 mm
02:01 PM 55.2°F12.9°C 29.9°F-1.2°C 38% Calm Calm -- 29.51 in999.3 mb 0.00 in0.0 mm 0.00 in0.0 mm 0.18 in4.6 mm
02:16 PM 55.0°F12.8°C 29.7°F-1.3°C 38% Calm Calm -- 29.51 in999.3 mb 0.00 in0.0 mm 0.00 in0.0 mm 0.18 in4.6 mm
02:31 PM 55.2°F12.9°C 29.9°F-1.2°C 38% Calm Calm -- 29.51 in999.3 mb 0.00 in0.0 mm 0.00 in0.0 mm 0.18 in4.6 mm
02:46 PM 55.0°F12.8°C 29.7°F-1.3°C 38% Calm Calm -- 29.50 in999.0 mb 0.00 in0.0 mm 0.00 in0.0 mm 0.18 in4.6 mm
03:01 PM 54.9°F12.7°C 29.5°F-1.4°C 38% Calm Calm -- 29.51 in999.3 mb 0.00 in0.0 mm 0.00 in0.0 mm 0.18 in4.6 mm
03:16 PM 54.7°F12.6°C 29.4°F-1.4°C 38% Calm Calm 0.6 mph1.0 kmh 29.52 in999.7 mb 0.00 in0.0 mm 0.00 in0.0 mm 0.18 in4.6 mm
03:31 PM 54.5°F12.5°C 29.2°F-1.6°C 38% Calm Calm -- 29.52 in999.7 mb 0.00 in0.0 mm 0.00 in0.0 mm 0.18 in4.6 mm
03:46 PM 54.5°F12.5°C 29.2°F-1.6°C 38% Calm Calm -- 29.51 in999.3 mb 0.00 in0.0 mm 0.00 in0.0 mm 0.18 in4.6 mm
04:01 PM 54.3°F12.4°C 29.7°F-1.3°C 39% Calm Calm -- 29.51 in999.3 mb 0.00 in0.0 mm 0.00 in0.0 mm 0.18 in4.6 mm
04:16 PM 54.1°F12.3°C 29.5°F-1.4°C 39% Calm Calm -- 29.50 in999.0 mb 0.00 in0.0 mm 0.00 in0.0 mm 0.18 in4.6 mm
04:31 PM 54.3°F12.4°C 29.7°F-1.3°C 39% Calm Calm -- 29.50 in999.0 mb 0.00 in0.0 mm 0.00 in0.0 mm 0.18 in4.6 mm
04:46 PM 54.3°F12.4°C 29.7°F-1.3°C 39% Calm Calm -- 29.50 in999.0 mb 0.00 in0.0 mm 0.00 in0.0 mm 0.18 in4.6 mm
05:01 PM 54.3°F12.4°C 30.3°F-0.9°C 40% Calm Calm -- 29.51 in999.3 mb 0.00 in0.0 mm 0.00 in0.0 mm 0.18 in4.6 mm
05:16 PM 54.3°F12.4°C 30.3°F-0.9°C 40% Calm Calm 0.6 mph1.0 kmh 29.51 in999.3 mb 0.00 in0.0 mm 0.00 in0.0 mm 0.18 in4.6 mm
05:31 PM 54.3°F12.4°C 30.3°F-0.9°C 40% Calm Calm -- 29.51 in999.3 mb 0.00 in0.0 mm 0.00 in0.0 mm 0.18 in4.6 mm
05:46 PM 54.3°F12.4°C 30.3°F-0.9°C 40% Calm Calm 0.6 mph1.0 kmh 29.52 in999.7 mb 0.00 in0.0 mm 0.00 in0.0 mm 0.18 in4.6 mm
06:01 PM 54.1°F12.3°C 30.8°F-0.7°C 41% Calm Calm -- 29.52 in999.7 mb 0.00 in0.0 mm 0.00 in0.0 mm 0.18 in4.6 mm
06:16 PM 54.5°F12.5°C 31.1°F-0.5°C 41% Calm Calm -- 29.52 in999.7 mb 0.00 in0.0 mm 0.00 in0.0 mm 0.18 in4.6 mm
06:31 PM 54.3°F12.4°C 30.9°F-0.6°C 41% Calm Calm -- 29.53 in1000.0 mb 0.00 in0.0 mm 0.00 in0.0 mm 0.18 in4.6 mm
06:46 PM 54.3°F12.4°C 30.9°F-0.6°C 41% Calm Calm -- 29.52 in999.7 mb 0.01 in0.3 mm 0.05 in1.3 mm 0.20 in5.1 mm
07:01 PM 54.3°F12.4°C 30.9°F-0.6°C 41% Calm Calm 0.6 mph1.0 kmh 29.52 in999.7 mb 0.01 in0.3 mm 0.00 in0.0 mm 0.20 in5.1 mm
07:16 PM 54.1°F12.3°C 30.8°F-0.7°C 41% Calm Calm 0.6 mph1.0 kmh 29.53 in1000.0 mb 0.00 in0.0 mm 0.00 in0.0 mm 0.20 in5.1 mm
07:31 PM 54.3°F12.4°C 31.5°F-0.3°C 42% Calm Calm -- 29.53 in1000.0 mb 0.00 in0.0 mm 0.00 in0.0 mm 0.20 in5.1 mm
07:46 PM 54.3°F12.4°C 31.5°F-0.3°C 42% Calm Calm -- 29.52 in999.7 mb 0.00 in0.0 mm 0.00 in0.0 mm 0.20 in5.1 mm
08:01 PM 54.3°F12.4°C 32.1°F0.1°C 43% Calm Calm -- 29.53 in1000.0 mb 0.00 in0.0 mm 0.00 in0.0 mm 0.20 in5.1 mm
08:16 PM 54.1°F12.3°C 32.0°F0.0°C 43% Calm Calm 0.6 mph1.0 kmh 29.53 in1000.0 mb 0.00 in0.0 mm 0.00 in0.0 mm 0.20 in5.1 mm
08:31 PM 54.3°F12.4°C 32.1°F0.1°C 43% Calm Calm -- 29.54 in1000.3 mb 0.00 in0.0 mm 0.00 in0.0 mm 0.20 in5.1 mm
08:46 PM 54.5°F12.5°C 32.9°F0.5°C 44% Calm Calm -- 29.54 in1000.3 mb 0.00 in0.0 mm 0.00 in0.0 mm 0.20 in5.1 mm
09:01 PM 54.3°F12.4°C 32.7°F0.4°C 44% Calm Calm -- 29.53 in1000.0 mb 0.00 in0.0 mm 0.00 in0.0 mm 0.20 in5.1 mm
09:16 PM 54.5°F12.5°C 33.4°F0.8°C 45% Calm Calm -- 29.52 in999.7 mb 0.00 in0.0 mm 0.00 in0.0 mm 0.20 in5.1 mm
09:31 PM 54.3°F12.4°C 33.3°F0.7°C 45% Calm Calm -- 29.52 in999.7 mb 0.00 in0.0 mm 0.00 in0.0 mm 0.20 in5.1 mm
09:46 PM 54.5°F12.5°C 33.4°F0.8°C 45% Calm Calm -- 29.52 in999.7 mb 0.00 in0.0 mm 0.00 in0.0 mm 0.20 in5.1 mm
10:01 PM 54.3°F12.4°C 33.8°F1.0°C 46% Calm Calm -- 29.52 in999.7 mb 0.00 in0.0 mm 0.00 in0.0 mm 0.20 in5.1 mm
10:16 PM 54.7°F12.6°C 34.1°F1.2°C 46% Calm Calm -- 29.52 in999.7 mb 0.00 in0.0 mm 0.00 in0.0 mm 0.20 in5.1 mm
10:31 PM 54.7°F12.6°C 34.1°F1.2°C 46% Calm Calm -- 29.53 in1000.0 mb 0.00 in0.0 mm 0.00 in0.0 mm 0.20 in5.1 mm
10:46 PM 54.5°F12.5°C 34.0°F1.1°C 46% Calm Calm -- 29.52 in999.7 mb 0.00 in0.0 mm 0.00 in0.0 mm 0.20 in5.1 mm
11:01 PM 54.7°F12.6°C 34.1°F1.2°C 46% Calm Calm -- 29.53 in1000.0 mb 0.00 in0.0 mm 0.00 in0.0 mm 0.20 in5.1 mm
11:16 PM 54.5°F12.5°C 34.0°F1.1°C 46% Calm Calm -- 29.52 in999.7 mb 0.00 in0.0 mm 0.00 in0.0 mm 0.20 in5.1 mm
11:31 PM 54.7°F12.6°C 34.7°F1.5°C 47% Calm Calm -- 29.53 in1000.0 mb 0.02 in0.5 mm 0.10 in2.5 mm 0.22 in5.6 mm
11:46 PM 54.7°F12.6°C 34.7°F1.5°C 47% Calm Calm -- 29.53 in1000.0 mb 0.04 in1.0 mm 0.05 in1.3 mm 0.23 in5.8 mm